Nissho Maru No.18 — JL6369 — position and weather

sailwx.info

Track history (hours):
 
Tides and Currents Weather Stations Pressure Air Temp Water Temp Dewpoint Dewpoint Depression Visibility Wind Speed Wind Dir Waves Ship Positions

Nissho Maru No.18

Last reported at 2015-May-19 06:33 UTC. Time now 2015-May-29 12:22 UTC.
Position N 35°03' E 139°33'.
Warning: this ship's position is 10 days out of date.

Length 65 m; draft 4 m.

Type: Tanker. MMSI: 431500465.

Date/timePositionNaut miles runAvg speedWind from/ knotsBaromVisibWave heightAir tempDewpointWater temp
2015-May-19 06:33N 35°03' E 139°33'1010.2
2015-May-19 05:33N 35°09' E 139°44'9 8.9
2015-May-19 04:32N 35°18' E 139°44'9 9.0
2015-May-19 03:33N 35°27' E 139°46'1010.5
2015-May-19 02:33N 35°32' E 139°58'5 4.8
2015-May-19 01:33N 35°32' E 140°03'0 0.0
2015-May-19 00:33N 35°32' E 140°03'0 0.2
2015-May-18 23:33N 35°32' E 140°03'1 0.8
2015-May-18 22:23N 35°33' E 140°03'0 0.0
2015-May-18 21:29N 35°33' E 140°03'2 2.3
2015-May-18 20:33N 35°32' E 140°05'0 0.0
2015-May-18 19:33N 35°32' E 140°05'0 0.0
2015-May-18 18:33N 35°32' E 140°05'0 0.0
2015-May-18 17:33N 35°32' E 140°05'0 0.0
2015-May-18 16:33N 35°32' E 140°05'0 0.0
2015-May-18 15:33N 35°32' E 140°05'0 0.0
2015-May-18 14:33N 35°32' E 140°05'0 0.0
2015-May-18 13:33N 35°32' E 140°05'0 0.0
2015-May-18 12:33N 35°32' E 140°05'0 0.0
2015-May-18 11:33N 35°32' E 140°05'0 0.0
2015-May-18 10:33N 35°32' E 140°05'0 0.0
2015-May-18 09:33N 35°32' E 140°05'0 0.0
2015-May-18 08:33N 35°32' E 140°05'0 0.0
2015-May-18 07:33N 35°32' E 140°05'0 0.0
2015-May-18 06:33N 35°32' E 140°05'0 0.0
2015-May-18 05:33N 35°32' E 140°05'0 0.0
2015-May-18 04:33N 35°32' E 140°05'0 0.0
2015-May-18 03:33N 35°32' E 140°05'0 0.0
2015-May-18 02:30N 35°32' E 140°05'1 1.0
2015-May-18 01:20N 35°34' E 140°05'0 0.0
2015-May-18 00:32N 35°34' E 140°05'0 0.0
2015-May-17 23:26N 35°34' E 140°05'0 0.0
2015-May-17 22:32N 35°34' E 140°05'0 0.0
2015-May-17 21:32N 35°34' E 140°05'0 0.0
2015-May-17 20:32N 35°34' E 140°05'0 0.0
2015-May-17 19:32N 35°34' E 140°05'0 0.0
2015-May-17 18:32N 35°34' E 140°05'0 0.0
2015-May-17 17:32N 35°34' E 140°05'0 0.0
2015-May-17 16:26N 35°34' E 140°05'0 0.1
2015-May-17 15:32N 35°34' E 140°05'0 0.0
2015-May-17 14:32N 35°34' E 140°05'0 0.0
2015-May-17 13:32N 35°34' E 140°05'0 0.0
2015-May-17 12:27N 35°34' E 140°05'0 0.0
2015-May-17 11:21N 35°34' E 140°05'0 0.0
2015-May-17 10:31N 35°34' E 140°05'0 0.0
2015-May-17 09:31N 35°34' E 140°05'0 0.0
2015-May-17 08:13N 35°34' E 140°05'0 0.0
2015-May-17 07:25N 35°34' E 140°05'0 0.0
2015-May-17 06:25N 35°34' E 140°05'0 0.0
2015-May-17 05:31N 35°34' E 140°05'0 0.0
2015-May-17 04:31N 35°34' E 140°05'0 0.1
2015-May-17 03:25N 35°34' E 140°05'0 0.1
2015-May-17 02:25N 35°34' E 140°05'0 0.0
2015-May-17 01:31N 35°34' E 140°05'0 0.0
2015-May-17 00:31N 35°34' E 140°05'0 0.0
2015-May-16 23:19N 35°34' E 140°05'0 0.0
2015-May-16 22:25N 35°33' E 140°05'0 0.0
2015-May-16 21:25N 35°33' E 140°05'0 0.0
2015-May-16 20:31N 35°33' E 140°05'0 0.0
2015-May-16 19:25N 35°33' E 140°05'0 0.0
2015-May-16 18:31N 35°33' E 140°05'0 0.0
2015-May-16 17:28N 35°34' E 140°05'0 0.0
2015-May-16 16:25N 35°34' E 140°05'0 0.0
2015-May-16 15:25N 35°34' E 140°05'0 0.0
2015-May-16 14:13N 35°34' E 140°05'0 0.0
2015-May-16 13:19N 35°34' E 140°05'0 0.0
2015-May-16 12:22N 35°34' E 140°05'0 0.0
2015-May-16 11:31N 35°34' E 140°05'0 0.0
2015-May-16 10:25N 35°34' E 140°05'0 0.0
2015-May-16 09:13N 35°34' E 140°05'0 0.0
2015-May-16 08:31N 35°34' E 140°05'0 0.0
2015-May-16 07:29N 35°34' E 140°05'0 0.0
2015-May-16 06:29N 35°34' E 140°05'0 0.0
2015-May-16 05:11N 35°34' E 140°05'2 3.4
2015-May-16 04:33N 35°34' E 140°02'1211.8
2015-May-16 03:33N 35°30' E 139°48'2 2.4
2015-May-16 02:33N 35°31' E 139°46'0 0.0
2015-May-16 01:33N 35°31' E 139°46'0 0.0
2015-May-16 00:33N 35°31' E 139°46'0 0.0
2015-May-15 23:33N 35°31' E 139°46'3 2.7
2015-May-15 22:33N 35°30' E 139°49'1 1.5
2015-May-15 21:32N 35°31' E 139°50'0 0.0
2015-May-15 20:29N 35°31' E 139°51'0 0.0
2015-May-15 19:32N 35°31' E 139°51'0 0.0
2015-May-15 18:32N 35°31' E 139°51'0 0.0
2015-May-15 17:29N 35°31' E 139°51'0 0.0
2015-May-15 16:32N 35°31' E 139°51'0 0.0
2015-May-15 15:32N 35°31' E 139°51'0 0.0
2015-May-15 14:32N 35°31' E 139°51'0 0.0
2015-May-15 13:29N 35°31' E 139°51'0 0.0
2015-May-15 12:32N 35°31' E 139°51'0 0.0
2015-May-15 11:29N 35°31' E 139°51'0 0.0
2015-May-15 10:32N 35°31' E 139°51'0 0.0
2015-May-15 09:32N 35°31' E 139°51'2 1.6
2015-May-15 08:33N 35°31' E 139°52'9 9.0
2015-May-15 07:33N 35°32' E 140°03'0 0.0
2015-May-15 06:33N 35°32' E 140°03'0 0.0
2015-May-15 05:33N 35°32' E 140°03'0 0.0
2015-May-15 04:33N 35°32' E 140°03'0 0.0
2015-May-15 03:33N 35°32' E 140°03'2 2.0
2015-May-15 02:33N 35°31' E 140°01'6 5.6
2015-May-15 01:30N 35°29' E 139°55'5 4.9
2015-May-15 00:33N 35°27' E 139°50'1010.5
2015-May-14 23:33N 35°17' E 139°46'1211.5
2015-May-14 22:33N 35°05' E 139°45'1210.9
2015-May-14 21:28N 34°53' E 139°48'1110.6
2015-May-14 20:27N 34°55' E 140°01'1010.9
2015-May-14 19:33N 35°01' E 140°10'1110.3
2015-May-14 18:29N 35°07' E 140°21'1010.4
2015-May-14 17:33N 35°14' E 140°29'1211.2
2015-May-14 16:29N 35°24' E 140°38'1111.3
2015-May-14 15:32N 35°32' E 140°46'1211.3
2015-May-14 14:28N 35°43' E 140°54'1111.5
2015-May-14 13:32N 35°52' E 140°48'6 6.5
2015-May-14 12:33N 35°54' E 140°41'0 0.0
2015-May-14 05:30N 35°54' E 140°41'29 7.3
2015-May-14 01:31N 35°25' E 140°41'3612.2
2015-May-13 22:33N 34°59' E 140°10'2311.5
2015-May-13 20:32N 34°52' E 139°43'1111.7
2015-May-13 19:33N 34°50' E 139°29'1311.5
2015-May-13 18:27N 34°46' E 139°14'  
2015-May-10 13:10N 35°02' E 139°30'711.6
2015-May-10 12:33N 35°05' E 139°38'1111.1
2015-May-10 11:33N 35°14' E 139°46'1110.7
2015-May-10 10:34N 35°24' E 139°43'1111.5
2015-May-10 09:33N 35°31' E 139°55'6 6.4
2015-May-10 08:33N 35°31' E 140°02'0 0.0
2015-May-10 07:33N 35°31' E 140°02'0 0.0
2015-May-10 06:33N 35°31' E 140°02'0 0.0
2015-May-10 05:33N 35°31' E 140°02'0 0.0
2015-May-10 04:33N 35°31' E 140°02'0 0.0
2015-May-10 03:33N 35°31' E 140°02'0 0.1
2015-May-10 02:33N 35°31' E 140°02'7 5.9
2015-May-10 01:24N 35°29' E 139°54'0 0.0
2015-May-10 00:30N 35°29' E 139°54'0 0.0
2015-May-09 23:30N 35°29' E 139°54'0 0.0
2015-May-09 22:27N 35°29' E 139°54'0 0.0
2015-May-09 21:33N 35°29' E 139°54'0 0.0
2015-May-09 20:24N 35°29' E 139°54'5 5.7
2015-May-09 19:33N 35°26' E 139°49'1010.5
2015-May-09 18:34N 35°16' E 139°46'1111.1
2015-May-09 17:33N 35°05' E 139°44'1211.9
2015-May-09 16:33N 34°58' E 139°33'  
Track history (hours):
 
Tides and Currents Weather Stations Pressure Air Temp Water Temp Dewpoint Dewpoint Depression Visibility Wind Speed Wind Dir Waves Ship Positions

Nissho Maru No.18

Last reported at 2015-May-19 06:33 UTC. Time now 2015-May-29 12:22 UTC.
Position N 35°03' E 139°33'.
Warning: this ship's position is 10 days out of date.

Length 65 m; draft 4 m.

Type: Tanker. MMSI: 431500465.

Date/timePositionNaut miles runAvg speedWind from/ knotsBaromVisibWave heightAir tempDewpointWater temp
2015-May-19 06:33N 35°03' E 139°33'1010.2
2015-May-19 05:33N 35°09' E 139°44'9 8.9
2015-May-19 04:32N 35°18' E 139°44'9 9.0
2015-May-19 03:33N 35°27' E 139°46'1010.5
2015-May-19 02:33N 35°32' E 139°58'5 4.8
2015-May-19 01:33N 35°32' E 140°03'0 0.0
2015-May-19 00:33N 35°32' E 140°03'0 0.2
2015-May-18 23:33N 35°32' E 140°03'1 0.8
2015-May-18 22:23N 35°33' E 140°03'0 0.0
2015-May-18 21:29N 35°33' E 140°03'2 2.3
2015-May-18 20:33N 35°32' E 140°05'0 0.0
2015-May-18 19:33N 35°32' E 140°05'0 0.0
2015-May-18 18:33N 35°32' E 140°05'0 0.0
2015-May-18 17:33N 35°32' E 140°05'0 0.0
2015-May-18 16:33N 35°32' E 140°05'0 0.0
2015-May-18 15:33N 35°32' E 140°05'0 0.0
2015-May-18 14:33N 35°32' E 140°05'0 0.0
2015-May-18 13:33N 35°32' E 140°05'0 0.0
2015-May-18 12:33N 35°32' E 140°05'0 0.0
2015-May-18 11:33N 35°32' E 140°05'0 0.0
2015-May-18 10:33N 35°32' E 140°05'0 0.0
2015-May-18 09:33N 35°32' E 140°05'0 0.0
2015-May-18 08:33N 35°32' E 140°05'0 0.0
2015-May-18 07:33N 35°32' E 140°05'0 0.0
2015-May-18 06:33N 35°32' E 140°05'0 0.0
2015-May-18 05:33N 35°32' E 140°05'0 0.0
2015-May-18 04:33N 35°32' E 140°05'0 0.0
2015-May-18 03:33N 35°32' E 140°05'0 0.0
2015-May-18 02:30N 35°32' E 140°05'1 1.0
2015-May-18 01:20N 35°34' E 140°05'0 0.0
2015-May-18 00:32N 35°34' E 140°05'0 0.0
2015-May-17 23:26N 35°34' E 140°05'0 0.0
2015-May-17 22:32N 35°34' E 140°05'0 0.0
2015-May-17 21:32N 35°34' E 140°05'0 0.0
2015-May-17 20:32N 35°34' E 140°05'0 0.0
2015-May-17 19:32N 35°34' E 140°05'0 0.0
2015-May-17 18:32N 35°34' E 140°05'0 0.0
2015-May-17 17:32N 35°34' E 140°05'0 0.0
2015-May-17 16:26N 35°34' E 140°05'0 0.1
2015-May-17 15:32N 35°34' E 140°05'0 0.0
2015-May-17 14:32N 35°34' E 140°05'0 0.0
2015-May-17 13:32N 35°34' E 140°05'0 0.0
2015-May-17 12:27N 35°34' E 140°05'0 0.0
2015-May-17 11:21N 35°34' E 140°05'0 0.0
2015-May-17 10:31N 35°34' E 140°05'0 0.0
2015-May-17 09:31N 35°34' E 140°05'0 0.0
2015-May-17 08:13N 35°34' E 140°05'0 0.0
2015-May-17 07:25N 35°34' E 140°05'0 0.0
2015-May-17 06:25N 35°34' E 140°05'0 0.0
2015-May-17 05:31N 35°34' E 140°05'0 0.0
2015-May-17 04:31N 35°34' E 140°05'0 0.1
2015-May-17 03:25N 35°34' E 140°05'0 0.1
2015-May-17 02:25N 35°34' E 140°05'0 0.0
2015-May-17 01:31N 35°34' E 140°05'0 0.0
2015-May-17 00:31N 35°34' E 140°05'0 0.0
2015-May-16 23:19N 35°34' E 140°05'0 0.0
2015-May-16 22:25N 35°33' E 140°05'0 0.0
2015-May-16 21:25N 35°33' E 140°05'0 0.0
2015-May-16 20:31N 35°33' E 140°05'0 0.0
2015-May-16 19:25N 35°33' E 140°05'0 0.0
2015-May-16 18:31N 35°33' E 140°05'0 0.0
2015-May-16 17:28N 35°34' E 140°05'0 0.0
2015-May-16 16:25N 35°34' E 140°05'0 0.0
2015-May-16 15:25N 35°34' E 140°05'0 0.0
2015-May-16 14:13N 35°34' E 140°05'0 0.0
2015-May-16 13:19N 35°34' E 140°05'0 0.0
2015-May-16 12:22N 35°34' E 140°05'0 0.0
2015-May-16 11:31N 35°34' E 140°05'0 0.0
2015-May-16 10:25N 35°34' E 140°05'0 0.0
2015-May-16 09:13N 35°34' E 140°05'0 0.0
2015-May-16 08:31N 35°34' E 140°05'0 0.0
2015-May-16 07:29N 35°34' E 140°05'0 0.0
2015-May-16 06:29N 35°34' E 140°05'0 0.0
2015-May-16 05:11N 35°34' E 140°05'2 3.4
2015-May-16 04:33N 35°34' E 140°02'1211.8
2015-May-16 03:33N 35°30' E 139°48'2 2.4
2015-May-16 02:33N 35°31' E 139°46'0 0.0
2015-May-16 01:33N 35°31' E 139°46'0 0.0
2015-May-16 00:33N 35°31' E 139°46'0 0.0
2015-May-15 23:33N 35°31' E 139°46'3 2.7
2015-May-15 22:33N 35°30' E 139°49'1 1.5
2015-May-15 21:32N 35°31' E 139°50'0 0.0
2015-May-15 20:29N 35°31' E 139°51'0 0.0
2015-May-15 19:32N 35°31' E 139°51'0 0.0
2015-May-15 18:32N 35°31' E 139°51'0 0.0
2015-May-15 17:29N 35°31' E 139°51'0 0.0
2015-May-15 16:32N 35°31' E 139°51'0 0.0
2015-May-15 15:32N 35°31' E 139°51'0 0.0
2015-May-15 14:32N 35°31' E 139°51'0 0.0
2015-May-15 13:29N 35°31' E 139°51'0 0.0
2015-May-15 12:32N 35°31' E 139°51'0 0.0
2015-May-15 11:29N 35°31' E 139°51'0 0.0
2015-May-15 10:32N 35°31' E 139°51'0 0.0
2015-May-15 09:32N 35°31' E 139°51'2 1.6
2015-May-15 08:33N 35°31' E 139°52'9 9.0
2015-May-15 07:33N 35°32' E 140°03'0 0.0
2015-May-15 06:33N 35°32' E 140°03'0 0.0
2015-May-15 05:33N 35°32' E 140°03'0 0.0
2015-May-15 04:33N 35°32' E 140°03'0 0.0
2015-May-15 03:33N 35°32' E 140°03'2 2.0
2015-May-15 02:33N 35°31' E 140°01'6 5.6
2015-May-15 01:30N 35°29' E 139°55'5 4.9
2015-May-15 00:33N 35°27' E 139°50'1010.5
2015-May-14 23:33N 35°17' E 139°46'1211.5
2015-May-14 22:33N 35°05' E 139°45'1210.9
2015-May-14 21:28N 34°53' E 139°48'1110.6
2015-May-14 20:27N 34°55' E 140°01'1010.9
2015-May-14 19:33N 35°01' E 140°10'1110.3
2015-May-14 18:29N 35°07' E 140°21'1010.4
2015-May-14 17:33N 35°14' E 140°29'1211.2
2015-May-14 16:29N 35°24' E 140°38'1111.3
2015-May-14 15:32N 35°32' E 140°46'1211.3
2015-May-14 14:28N 35°43' E 140°54'1111.5
2015-May-14 13:32N 35°52' E 140°48'6 6.5
2015-May-14 12:33N 35°54' E 140°41'0 0.0
2015-May-14 05:30N 35°54' E 140°41'29 7.3
2015-May-14 01:31N 35°25' E 140°41'3612.2
2015-May-13 22:33N 34°59' E 140°10'2311.5
2015-May-13 20:32N 34°52' E 139°43'1111.7
2015-May-13 19:33N 34°50' E 139°29'1311.5
2015-May-13 18:27N 34°46' E 139°14'  
2015-May-10 13:10N 35°02' E 139°30'711.6
2015-May-10 12:33N 35°05' E 139°38'1111.1
2015-May-10 11:33N 35°14' E 139°46'1110.7
2015-May-10 10:34N 35°24' E 139°43'1111.5
2015-May-10 09:33N 35°31' E 139°55'6 6.4
2015-May-10 08:33N 35°31' E 140°02'0 0.0
2015-May-10 07:33N 35°31' E 140°02'0 0.0
2015-May-10 06:33N 35°31' E 140°02'0 0.0
2015-May-10 05:33N 35°31' E 140°02'0 0.0
2015-May-10 04:33N 35°31' E 140°02'0 0.0
2015-May-10 03:33N 35°31' E 140°02'0 0.1
2015-May-10 02:33N 35°31' E 140°02'7 5.9
2015-May-10 01:24N 35°29' E 139°54'0 0.0
2015-May-10 00:30N 35°29' E 139°54'0 0.0
2015-May-09 23:30N 35°29' E 139°54'0 0.0
2015-May-09 22:27N 35°29' E 139°54'0 0.0
2015-May-09 21:33N 35°29' E 139°54'0 0.0
2015-May-09 20:24N 35°29' E 139°54'5 5.7
2015-May-09 19:33N 35°26' E 139°49'1010.5
2015-May-09 18:34N 35°16' E 139°46'1111.1
2015-May-09 17:33N 35°05' E 139°44'1211.9
2015-May-09 16:33N 34°58' E 139°33'  

Dump ship's entire track history